Record high temperature 36.3°C Record low temperature -6.1°C Record high gust 90.1 km/h Record high average 70.9 km/h Record daily rain 58.2 mm Record low windchill -9.9°C Record high barometer 1045.9 hPa Record low barometer 985.2 hPa
Daily high pressure 1005.2 hPa Daily low pressure 996.7 hPa Daily low windchill 15.0°C Daily high heat index 18.3°C Daily high gust speed 35.4 kmh ESE Daily high average speed 26.8 kmh E
Stazione meteo Crema centro
ULTIMO RILEVAMENTO ALLE ORE: 22:45 GIORNO: 04 Giugno 2020 prossimo aggiornamento ore: 22:50
Tempo presenteNight time/Moderate rain/mostly cloudy - Temperatura attuale 15.0°C (59.0°F), temperatura apparente 13.1°C
Temperatura massima (da mezzanotte)18.3°C alle ore: 00:10 Temperatura minima (da mezzanotte)15.0°C alle ore: 22:38
Forza media vento (dieci minuti)9.8 kmh (5.3 kts) Direzione vento (dieci minuti)NE (41°)
Temperatura vento 15.0°C Massima forza (ultima ora)22.5 kmh (12.2 kts) alle ore: 22:44
Massima forza (da mezzanotte)35.4 kmh (19.1 kts) alle ore: 17:15 Massimo vento 1 minuto (da mezzanotte)26.8 kmh (14.5 kts) alle ore: 17:21
Pioggia (ultima ora)5.6 mm Pioggia (da mezzanotte)28.4 mm (1.12 in.) at 22:43
Pioggia Questo mese 34.8 mm (1.37 in.) Pioggia Questo anno 198.9 mm (7.83 in.)
Massima pioggia per minuto (ultima ora)0.3 mm/min Massima pioggia per ora (ultime 6 ore)7.4 mm/ore
Pioggia di ieri 5.6 mm DewPoint 12.1°C (Wet Bulb :13.4°C )
Umidita 83 %, Humidex 17.3°C Pressione S.L.M.996.8 hPa (QNH 996.8 hPa
Variazione pressione -0.0 hPa (ultima ora) Tendenza (ultime 1 ore)Stazionaria
Variazione pressione (ultime 12 ore)-5.0 hPa Variazione pressione (ultime 6 ore)-2.9 hPa
Current Solar 0 W/mē
Maximum solar (da mezzanotte) 657 W/mē Minimum solar (da mezzanotte)0 W/mē
Current 00:10 hours of sunshine today, current sky: Night time/Moderate rain/mostly cloudy -
Sunshine hours for the year: 768:26 hrs Sunshine hours for the month: 26:32 hrs
Current evapotranspiration rate 1.5 mm per day. Yesterday's reading 4.8

Questa pagina e` aggiornata con i dati della stazione meteo DAVIS VP Premere Reload o Refresh per facilitare la lettura dei dati aggiornati.

Status report of weather station: IK2CHZ - Crema meteo



Weather report/warning/Metars

Milano / Linate, Italy (LIML) 45-26N 009-17E 103M
Jun 04, 2020 - 04:20 PM EDT / 2020.06.04 2020 UTC
Wind: from the E (090 degrees) at 8 MPH (7 KT):0
Visibility: 3 mile(s):0
Sky conditions: mostly cloudy
Weather: rain; mist
Temperature: 60 F (16 C)
Dew Point: 59 F (15 C)
Relative Humidity: 93%
Pressure (altimeter): 29.44 in. Hg (0997 hPa)
ob: LIML 042020Z 09007KT 5000 RA BR BKN005 BKN040 16/15 Q0997 NOSIG
cycle: 20
Bergamo / Orio Al Serio, Italy (LIME) 45-40N 009-42E 237M
Jun 04, 2020 - 04:20 PM EDT / 2020.06.04 2020 UTC
Wind: from the E (090 degrees) at 2 MPH (2 KT):0
Visibility: greater than 7 mile(s):0
Sky conditions: mostly cloudy
Weather: light rain
Temperature: 57 F (14 C)
Dew Point: 57 F (14 C)
Relative Humidity: 100%
Pressure (altimeter): 29.44 in. Hg (0997 hPa)
ob: LIME 042020Z 09002KT 9999 -RA FEW015 BKN050 14/14 Q0997 NOSIG
cycle: 20
Piacenza, Italy (LIMS) 44-55N 009-44E 138M
Jun 04, 2020 - 01:55 PM EDT / 2020.06.04 1755 UTC
Wind: from the ESE (120 degrees) at 14 MPH (12 KT):0
Visibility: 2 mile(s):0
Sky conditions: mostly cloudy
Weather: light rain; mist
Temperature: 60 F (16 C)
Dew Point: 60 F (16 C)
Relative Humidity: 100%
Pressure (altimeter): 29.41 in. Hg (0996 hPa)
ob: LIMS 041755Z 12012KT 4000 -RA BR SCT005 BKN030 16/16 Q0996
cycle: 18